createdAt,value
2023-02-15T00:00:10.072Z,97221.00
2023-02-15T00:01:10.072Z,97225.00
2023-02-15T00:02:09.170Z,97221.00
2023-02-15T00:03:10.155Z,97223.00
2023-02-15T00:04:10.055Z,97221.00
2023-02-15T00:05:09.041Z,97221.00
2023-02-15T00:06:10.035Z,97217.00
2023-02-15T00:07:10.028Z,97215.00
2023-02-15T00:08:10.028Z,97217.00
2023-02-15T00:09:10.342Z,97217.00
2023-02-15T00:10:10.024Z,97215.00
2023-02-15T00:11:09.056Z,97215.00
2023-02-15T00:12:08.989Z,97215.00
2023-02-15T00:13:09.973Z,97205.00
2023-02-15T00:14:09.976Z,97203.00
2023-02-15T00:15:09.986Z,97205.00
2023-02-15T00:16:08.997Z,97213.00
2023-02-15T00:17:09.963Z,97203.00
2023-02-15T00:18:09.942Z,97205.00
2023-02-15T00:19:08.974Z,97203.00
2023-02-15T00:20:09.923Z,97203.00
2023-02-15T00:21:08.927Z,97201.00
2023-02-15T00:22:08.917Z,97201.00
2023-02-15T00:23:09.900Z,97201.00
2023-02-15T00:24:09.930Z,97201.00
2023-02-15T00:25:09.888Z,97201.00
2023-02-15T00:26:08.897Z,97199.00
2023-02-15T00:27:08.881Z,97201.00
2023-02-15T00:28:08.862Z,97197.00
2023-02-15T00:29:09.875Z,97197.00
2023-02-15T00:30:09.922Z,97197.00
2023-02-15T00:31:09.999Z,97197.00
2023-02-15T00:32:09.857Z,97199.00
2023-02-15T00:33:08.838Z,97199.00
2023-02-15T00:34:09.845Z,97197.00
2023-02-15T00:35:09.853Z,97197.00
2023-02-15T00:36:09.816Z,97197.00
2023-02-15T00:37:09.835Z,97197.00
2023-02-15T00:38:09.817Z,97197.00
2023-02-15T00:39:09.834Z,97197.00
2023-02-15T00:40:09.826Z,97197.00
2023-02-15T00:41:09.832Z,97193.00
2023-02-15T00:42:08.838Z,97193.00
2023-02-15T00:43:08.867Z,97193.00
2023-02-15T00:44:09.864Z,97191.00
2023-02-15T00:45:08.845Z,97191.00
2023-02-15T00:46:09.931Z,97191.00
2023-02-15T00:47:08.848Z,97191.00
2023-02-15T00:48:09.846Z,97189.00
2023-02-15T00:49:09.900Z,97187.00
2023-02-15T00:50:09.864Z,97187.00
2023-02-15T00:51:08.886Z,97189.00
2023-02-15T00:52:09.878Z,97185.00
2023-02-15T00:53:09.874Z,97185.00
2023-02-15T00:54:08.878Z,97183.00
2023-02-15T00:55:09.882Z,97187.00
2023-02-15T00:56:09.880Z,97183.00
2023-02-15T00:57:08.895Z,97183.00
2023-02-15T00:58:08.912Z,97181.00
2023-02-15T00:59:08.892Z,97181.00
2023-02-15T01:00:09.891Z,97181.00
2023-02-15T01:01:09.948Z,97181.00
2023-02-15T01:02:09.908Z,97179.00
2023-02-15T01:03:09.915Z,97177.00
2023-02-15T01:04:09.993Z,97175.00
2023-02-15T01:05:09.942Z,97175.00
2023-02-15T01:06:08.955Z,97175.00
2023-02-15T01:07:08.976Z,97177.00
2023-02-15T01:08:09.974Z,97175.00
2023-02-15T01:09:09.971Z,97177.00
2023-02-15T01:10:09.987Z,97173.00
2023-02-15T01:11:10.057Z,97171.00
2023-02-15T01:12:08.996Z,97171.00
2023-02-15T01:13:10.010Z,97169.00
2023-02-15T01:14:10.013Z,97169.00
2023-02-15T01:15:10.045Z,97167.00
2023-02-15T01:16:10.100Z,97167.00
2023-02-15T01:17:10.054Z,97169.00
2023-02-15T01:18:09.046Z,97167.00
2023-02-15T01:19:09.058Z,97166.00
2023-02-15T01:20:10.066Z,97164.00
2023-02-15T01:21:09.077Z,97166.00
2023-02-15T01:22:10.075Z,97166.00
2023-02-15T01:23:09.115Z,97162.00
2023-02-15T01:24:09.087Z,97162.00
2023-02-15T01:25:10.129Z,97166.00
2023-02-15T01:26:10.112Z,97162.00
2023-02-15T01:27:09.154Z,97158.00
2023-02-15T01:28:09.151Z,97158.00
2023-02-15T01:29:10.152Z,97160.00
2023-02-15T01:30:10.277Z,97160.00
2023-02-15T01:31:10.258Z,97162.00
2023-02-15T01:32:10.337Z,97162.00
2023-02-15T01:33:10.207Z,97158.00
2023-02-15T01:34:10.208Z,97158.00
2023-02-15T01:35:10.235Z,97158.00
2023-02-15T01:36:09.275Z,97160.00
2023-02-15T01:37:10.259Z,97156.00
2023-02-15T01:38:10.273Z,97160.00
2023-02-15T01:39:10.312Z,97158.00
2023-02-15T01:40:10.311Z,97158.00
2023-02-15T01:41:10.316Z,97156.00
2023-02-15T01:42:10.337Z,97156.00
2023-02-15T01:43:10.322Z,97152.00
2023-02-15T01:44:10.333Z,97152.00
2023-02-15T01:45:10.363Z,97154.00
2023-02-15T01:46:09.465Z,97154.00
2023-02-15T01:47:10.378Z,97152.00
2023-02-15T01:48:10.386Z,97150.00
2023-02-15T01:49:09.379Z,97150.00
2023-02-15T01:50:10.412Z,97148.00
2023-02-15T01:51:10.390Z,97148.00
2023-02-15T01:52:10.400Z,97148.00
2023-02-15T01:53:10.452Z,97148.00
2023-02-15T01:54:10.470Z,97144.00
2023-02-15T01:55:09.520Z,97144.00
2023-02-15T01:56:09.445Z,97144.00
2023-02-15T01:57:09.479Z,97142.00
2023-02-15T01:58:09.479Z,97140.00
2023-02-15T01:59:10.508Z,97140.00
2023-02-15T02:00:10.541Z,97140.00
2023-02-15T02:01:10.565Z,97140.00
2023-02-15T02:02:09.547Z,97136.00
2023-02-15T02:03:10.543Z,97136.00
2023-02-15T02:04:10.580Z,97136.00
2023-02-15T02:05:09.595Z,97134.00
2023-02-15T02:06:09.613Z,97134.00
2023-02-15T02:07:10.616Z,97132.00
2023-02-15T02:08:10.648Z,97134.00
2023-02-15T02:09:10.670Z,97132.00
2023-02-15T02:10:10.672Z,97130.00
2023-02-15T02:11:10.716Z,97130.00
2023-02-15T02:12:10.691Z,97130.00
2023-02-15T02:13:09.704Z,97130.00
2023-02-15T02:14:10.738Z,97124.00
2023-02-15T02:15:10.737Z,97126.00
2023-02-15T02:16:09.792Z,97126.00
2023-02-15T02:17:09.746Z,97124.00
2023-02-15T02:18:09.765Z,97124.00
2023-02-15T02:19:10.782Z,97126.00
2023-02-15T02:20:10.790Z,97124.00
2023-02-15T02:21:10.816Z,97124.00
2023-02-15T02:22:10.811Z,97124.00
2023-02-15T02:23:09.860Z,97124.00
2023-02-15T02:24:10.856Z,97122.00
2023-02-15T02:25:09.866Z,97122.00
2023-02-15T02:26:10.888Z,97124.00
2023-02-15T02:27:10.911Z,97122.00
2023-02-15T02:28:09.907Z,97126.00
2023-02-15T02:29:10.918Z,97126.00
2023-02-15T02:30:10.996Z,97126.00
2023-02-15T02:31:10.122Z,97128.00
2023-02-15T02:32:10.958Z,97126.00
2023-02-15T02:33:10.974Z,97124.00
2023-02-15T02:34:10.987Z,97122.00
2023-02-15T02:35:11.001Z,97122.00
2023-02-15T02:36:11.021Z,97124.00
2023-02-15T02:37:11.030Z,97122.00
2023-02-15T02:38:10.039Z,97120.00
2023-02-15T02:39:11.069Z,97119.00
2023-02-15T02:40:11.071Z,97120.00
2023-02-15T02:41:11.116Z,97120.00
2023-02-15T02:42:11.103Z,97119.00
2023-02-15T02:43:10.159Z,97119.00
2023-02-15T02:44:11.154Z,97119.00
2023-02-15T02:45:10.138Z,97119.00
2023-02-15T02:46:11.223Z,97115.00
2023-02-15T02:47:11.190Z,97115.00
2023-02-15T02:48:11.192Z,97115.00
2023-02-15T02:49:11.204Z,97111.00
2023-02-15T02:50:11.242Z,97111.00
2023-02-15T02:51:10.219Z,97111.00
2023-02-15T02:52:11.229Z,97111.00
2023-02-15T02:53:11.254Z,97109.00
2023-02-15T02:54:11.267Z,97111.00
2023-02-15T02:55:11.279Z,97115.00
2023-02-15T02:56:10.279Z,97113.00
2023-02-15T02:57:10.377Z,97111.00
2023-02-15T02:58:10.323Z,97109.00
2023-02-15T02:59:11.360Z,97105.00
2023-02-15T03:00:10.399Z,97111.00
2023-02-15T03:01:11.352Z,97109.00
2023-02-15T03:02:11.377Z,97105.00
2023-02-15T03:03:10.453Z,97103.00
2023-02-15T03:04:11.422Z,97105.00
2023-02-15T03:05:11.435Z,97105.00
2023-02-15T03:06:11.449Z,97103.00
2023-02-15T03:07:10.495Z,97103.00
2023-02-15T03:08:11.483Z,97103.00
2023-02-15T03:09:11.525Z,97103.00
2023-02-15T03:10:10.535Z,97103.00
2023-02-15T03:11:11.552Z,97103.00
2023-02-15T03:12:11.559Z,97103.00
2023-02-15T03:13:10.577Z,97103.00
2023-02-15T03:14:11.610Z,97101.00
2023-02-15T03:15:10.639Z,97103.00
2023-02-15T03:16:10.780Z,97101.00
2023-02-15T03:17:11.676Z,97103.00
2023-02-15T03:18:11.692Z,97099.00
2023-02-15T03:19:10.721Z,97099.00
2023-02-15T03:20:11.738Z,97101.00
2023-02-15T03:21:11.754Z,97099.00
2023-02-15T03:22:11.767Z,97099.00
2023-02-15T03:23:11.804Z,97099.00
2023-02-15T03:24:11.815Z,97099.00
2023-02-15T03:25:11.846Z,97097.00
2023-02-15T03:26:11.854Z,97097.00
2023-02-15T03:27:11.879Z,97097.00
2023-02-15T03:28:11.891Z,97093.00
2023-02-15T03:29:11.941Z,97093.00
2023-02-15T03:30:11.015Z,97093.00
2023-02-15T03:31:12.138Z,97093.00
2023-02-15T03:32:12.072Z,97099.00
2023-02-15T03:33:12.001Z,97097.00
2023-02-15T03:34:12.012Z,97097.00
2023-02-15T03:35:11.058Z,97097.00
2023-02-15T03:36:12.099Z,97097.00
2023-02-15T03:37:12.107Z,97095.00
2023-02-15T03:38:12.118Z,97095.00
2023-02-15T03:39:12.140Z,97093.00
2023-02-15T03:40:11.169Z,97095.00
2023-02-15T03:41:12.180Z,97095.00
2023-02-15T03:42:12.217Z,97095.00
2023-02-15T03:43:11.221Z,97095.00
2023-02-15T03:44:12.243Z,97095.00
2023-02-15T03:45:11.269Z,97095.00
2023-02-15T03:46:12.334Z,97093.00
2023-02-15T03:47:11.353Z,97093.00
2023-02-15T03:48:11.354Z,97093.00
2023-02-15T03:49:12.428Z,97091.00
2023-02-15T03:50:12.405Z,97091.00
2023-02-15T03:51:12.424Z,97091.00
2023-02-15T03:52:12.480Z,97089.00
2023-02-15T03:53:12.482Z,97091.00
2023-02-15T03:54:12.543Z,97091.00
2023-02-15T03:55:11.518Z,97093.00
2023-02-15T03:56:11.549Z,97089.00
2023-02-15T03:57:12.573Z,97091.00
2023-02-15T03:58:12.594Z,97093.00
2023-02-15T03:59:12.606Z,97091.00
2023-02-15T04:00:12.629Z,97093.00
2023-02-15T04:01:11.766Z,97093.00
2023-02-15T04:02:12.691Z,97093.00
2023-02-15T04:03:12.780Z,97095.00
2023-02-15T04:04:11.726Z,97097.00
2023-02-15T04:05:12.751Z,97099.00
2023-02-15T04:06:12.785Z,97099.00
2023-02-15T04:07:12.816Z,97099.00
2023-02-15T04:08:12.838Z,97099.00
2023-02-15T04:09:12.853Z,97101.00
2023-02-15T04:10:12.882Z,97101.00
2023-02-15T04:11:11.912Z,97101.00
2023-02-15T04:12:12.935Z,97101.00
2023-02-15T04:13:11.947Z,97103.00
2023-02-15T04:14:12.980Z,97101.00
2023-02-15T04:15:13.013Z,97101.00
2023-02-15T04:16:13.162Z,97101.00
2023-02-15T04:17:12.081Z,97103.00
2023-02-15T04:18:13.091Z,97101.00
2023-02-15T04:19:13.142Z,97101.00
2023-02-15T04:20:13.145Z,97101.00
2023-02-15T04:21:12.183Z,97101.00
2023-02-15T04:22:13.198Z,97101.00
2023-02-15T04:23:13.214Z,97099.00
2023-02-15T04:24:12.253Z,97099.00
2023-02-15T04:25:12.276Z,97099.00
2023-02-15T04:26:12.314Z,97097.00
2023-02-15T04:27:12.318Z,97097.00
2023-02-15T04:28:13.353Z,97097.00
2023-02-15T04:29:13.372Z,97097.00
2023-02-15T04:30:13.464Z,97099.00
2023-02-15T04:31:13.578Z,97099.00
2023-02-15T04:32:13.560Z,97099.00
2023-02-15T04:33:12.509Z,97097.00
2023-02-15T04:34:12.516Z,97097.00
2023-02-15T04:35:13.577Z,97099.00
2023-02-15T04:36:12.570Z,97099.00
2023-02-15T04:37:13.607Z,97099.00
2023-02-15T04:38:13.635Z,97097.00
2023-02-15T04:39:12.653Z,97095.00
2023-02-15T04:40:13.689Z,97097.00
2023-02-15T04:41:13.710Z,97093.00
2023-02-15T04:42:12.953Z,97097.00
2023-02-15T04:43:12.754Z,97095.00
2023-02-15T04:44:13.794Z,97093.00
2023-02-15T04:45:12.815Z,97093.00
2023-02-15T04:46:13.896Z,97093.00
2023-02-15T04:47:12.865Z,97093.00
2023-02-15T04:48:13.882Z,97093.00
2023-02-15T04:49:12.920Z,97093.00
2023-02-15T04:50:13.941Z,97093.00
2023-02-15T04:51:13.987Z,97095.00
2023-02-15T04:52:14.013Z,97095.00
2023-02-15T04:53:14.032Z,97095.00
2023-02-15T04:54:14.056Z,97097.00
2023-02-15T04:55:14.091Z,97095.00
2023-02-15T04:56:14.113Z,97097.00
2023-02-15T04:57:13.135Z,97099.00
2023-02-15T04:58:13.175Z,97097.00
2023-02-15T04:59:14.180Z,97095.00
2023-02-15T05:00:14.218Z,97095.00
2023-02-15T05:01:14.289Z,97093.00
2023-02-15T05:02:13.286Z,97095.00
2023-02-15T05:03:14.296Z,97095.00
2023-02-15T05:04:13.390Z,97095.00
2023-02-15T05:05:14.366Z,97095.00
2023-02-15T05:06:13.378Z,97097.00
2023-02-15T05:07:13.440Z,97097.00
2023-02-15T05:08:14.434Z,97097.00
2023-02-15T05:09:14.465Z,97097.00
2023-02-15T05:10:14.504Z,97097.00
2023-02-15T05:11:13.534Z,97095.00
2023-02-15T05:12:13.545Z,97095.00
2023-02-15T05:13:14.578Z,97091.00
2023-02-15T05:14:13.609Z,97093.00
2023-02-15T05:15:13.650Z,97091.00
2023-02-15T05:16:13.681Z,97091.00
2023-02-15T05:17:13.693Z,97093.00
2023-02-15T05:18:13.733Z,97093.00
2023-02-15T05:19:14.758Z,97091.00
2023-02-15T05:20:14.781Z,97093.00
2023-02-15T05:21:14.817Z,97093.00
2023-02-15T05:22:14.825Z,97095.00
2023-02-15T05:23:14.896Z,97095.00
2023-02-15T05:24:13.890Z,97097.00
2023-02-15T05:25:14.918Z,97095.00
2023-02-15T05:26:14.967Z,97099.00
2023-02-15T05:27:14.981Z,97097.00
2023-02-15T05:28:14.004Z,97095.00
2023-02-15T05:29:14.035Z,97099.00
2023-02-15T05:30:15.212Z,97097.00
2023-02-15T05:31:15.403Z,97097.00
2023-02-15T05:32:15.333Z,97097.00
2023-02-15T05:33:15.164Z,97097.00
2023-02-15T05:34:15.190Z,97099.00
2023-02-15T05:35:14.236Z,97101.00
2023-02-15T05:36:15.247Z,97103.00
2023-02-15T05:37:15.285Z,97105.00
2023-02-15T05:38:15.327Z,97105.00
2023-02-15T05:39:14.369Z,97107.00
2023-02-15T05:40:14.386Z,97109.00
2023-02-15T05:41:15.413Z,97109.00
2023-02-15T05:42:15.441Z,97111.00
2023-02-15T05:43:15.484Z,97113.00
2023-02-15T05:44:14.481Z,97115.00
2023-02-15T05:45:15.514Z,97117.00
2023-02-15T05:46:14.648Z,97117.00
2023-02-15T05:47:15.570Z,97117.00
2023-02-15T05:48:15.642Z,97119.00
2023-02-15T05:49:15.635Z,97122.00
2023-02-15T05:50:15.655Z,97120.00
2023-02-15T05:51:15.681Z,97122.00
2023-02-15T05:52:14.708Z,97126.00
2023-02-15T05:53:14.754Z,97126.00
2023-02-15T05:54:15.786Z,97130.00
2023-02-15T05:55:14.845Z,97132.00
2023-02-15T05:56:15.848Z,97134.00
2023-02-15T05:57:15.877Z,97130.00
2023-02-15T05:58:15.896Z,97136.00
2023-02-15T05:59:14.933Z,97134.00
2023-02-15T06:00:15.969Z,97138.00
2023-02-15T06:01:14.994Z,97136.00
2023-02-15T06:02:15.090Z,97134.00
2023-02-15T06:03:15.108Z,97140.00
2023-02-15T06:04:16.095Z,97140.00
2023-02-15T06:05:15.134Z,97140.00
2023-02-15T06:06:15.141Z,97140.00
2023-02-15T06:07:16.183Z,97140.00
2023-02-15T06:08:15.203Z,97140.00
2023-02-15T06:09:16.276Z,97142.00
2023-02-15T06:10:15.269Z,97144.00
2023-02-15T06:11:16.330Z,97144.00
2023-02-15T06:12:16.335Z,97148.00
2023-02-15T06:13:15.388Z,97150.00
2023-02-15T06:14:16.409Z,97148.00
2023-02-15T06:15:16.476Z,97150.00
2023-02-15T06:16:15.507Z,97150.00
2023-02-15T06:17:15.493Z,97150.00
2023-02-15T06:18:16.518Z,97152.00
2023-02-15T06:19:16.547Z,97154.00
2023-02-15T06:20:16.576Z,97154.00
2023-02-15T06:21:15.599Z,97154.00
2023-02-15T06:22:16.630Z,97158.00
2023-02-15T06:23:16.661Z,97156.00
2023-02-15T06:24:16.681Z,97158.00
2023-02-15T06:25:16.702Z,97156.00
2023-02-15T06:26:16.735Z,97158.00
2023-02-15T06:27:16.801Z,97158.00
2023-02-15T06:28:16.806Z,97154.00
2023-02-15T06:29:15.838Z,97160.00
2023-02-15T06:30:16.960Z,97156.00
2023-02-15T06:31:17.012Z,97156.00
2023-02-15T06:32:15.922Z,97158.00
2023-02-15T06:33:15.957Z,97158.00
2023-02-15T06:34:16.003Z,97160.00
2023-02-15T06:35:17.002Z,97158.00
2023-02-15T06:36:17.050Z,97160.00
2023-02-15T06:37:17.077Z,97160.00
2023-02-15T06:38:17.124Z,97160.00
2023-02-15T06:39:16.157Z,97160.00
2023-02-15T06:40:17.194Z,97162.00
2023-02-15T06:41:17.194Z,97162.00
2023-02-15T06:42:17.227Z,97162.00
2023-02-15T06:43:16.268Z,97162.00
2023-02-15T06:44:17.326Z,97164.00
2023-02-15T06:45:17.322Z,97162.00
2023-02-15T06:46:17.441Z,97162.00
2023-02-15T06:47:17.370Z,97164.00
2023-02-15T06:48:17.412Z,97166.00
2023-02-15T06:49:17.449Z,97167.00
2023-02-15T06:50:16.460Z,97167.00
2023-02-15T06:51:17.485Z,97167.00
2023-02-15T06:52:17.518Z,97167.00
2023-02-15T06:53:17.572Z,97169.00
2023-02-15T06:54:17.958Z,97167.00
2023-02-15T06:55:17.638Z,97167.00
2023-02-15T06:56:16.668Z,97167.00
2023-02-15T06:57:17.852Z,97169.00
2023-02-15T06:58:17.732Z,97169.00
2023-02-15T06:59:17.789Z,97171.00
2023-02-15T07:00:16.811Z,97171.00
2023-02-15T07:01:17.856Z,97169.00
2023-02-15T07:02:17.854Z,97167.00
2023-02-15T07:03:17.911Z,97169.00
2023-02-15T07:04:16.915Z,97169.00
2023-02-15T07:05:16.959Z,97171.00
2023-02-15T07:06:17.968Z,97171.00
2023-02-15T07:07:17.012Z,97171.00
2023-02-15T07:08:17.080Z,97171.00
2023-02-15T07:09:17.106Z,97171.00
2023-02-15T07:10:18.122Z,97171.00
2023-02-15T07:11:18.141Z,97177.00
2023-02-15T07:12:18.162Z,97171.00
2023-02-15T07:13:18.215Z,97169.00
2023-02-15T07:14:18.235Z,97169.00
2023-02-15T07:15:18.294Z,97169.00
2023-02-15T07:16:18.340Z,97171.00
2023-02-15T07:17:35.033Z,97171.00
2023-02-15T07:18:18.313Z,97171.00
2023-02-15T07:19:18.306Z,97169.00
2023-02-15T07:20:18.332Z,97169.00
2023-02-15T07:21:18.297Z,97169.00
2023-02-15T07:22:18.279Z,97171.00
2023-02-15T07:23:17.281Z,97171.00
2023-02-15T07:24:17.272Z,97167.00
2023-02-15T07:25:18.349Z,97169.00
2023-02-15T07:26:18.324Z,97169.00
2023-02-15T07:27:18.246Z,97169.00
2023-02-15T07:28:17.244Z,97167.00
2023-02-15T07:29:18.231Z,97169.00
2023-02-15T07:30:18.398Z,97167.00
2023-02-15T07:31:17.369Z,97166.00
2023-02-15T07:32:18.289Z,97166.00
2023-02-15T07:33:17.223Z,97167.00
2023-02-15T07:34:18.202Z,97166.00
2023-02-15T07:35:18.258Z,97166.00
2023-02-15T07:36:18.263Z,97166.00
2023-02-15T07:37:17.294Z,97167.00
2023-02-15T07:38:18.322Z,97166.00
2023-02-15T07:39:18.362Z,97166.00
2023-02-15T07:40:18.402Z,97164.00
2023-02-15T07:41:18.430Z,97166.00
2023-02-15T07:42:17.444Z,97166.00
2023-02-15T07:43:18.485Z,97166.00
2023-02-15T07:44:18.512Z,97166.00
2023-02-15T07:45:18.542Z,97162.00
2023-02-15T07:46:18.610Z,97162.00
2023-02-15T07:47:18.631Z,97164.00
2023-02-15T07:48:17.620Z,97164.00
2023-02-15T07:49:18.660Z,97162.00
2023-02-15T07:50:18.685Z,97162.00
2023-02-15T07:51:18.740Z,97162.00
2023-02-15T07:52:17.753Z,97162.00
2023-02-15T07:53:18.779Z,97158.00
2023-02-15T07:54:17.806Z,97158.00
2023-02-15T07:55:18.852Z,97158.00
2023-02-15T07:56:18.865Z,97158.00
2023-02-15T07:57:18.911Z,97156.00
2023-02-15T07:58:18.928Z,97154.00
2023-02-15T07:59:18.964Z,97158.00
2023-02-15T08:00:19.013Z,97156.00
2023-02-15T08:01:18.030Z,97156.00
2023-02-15T08:02:19.057Z,97154.00
2023-02-15T08:03:18.275Z,97152.00
2023-02-15T08:04:18.111Z,97156.00
2023-02-15T08:05:18.151Z,97156.00
2023-02-15T08:06:19.174Z,97154.00
2023-02-15T08:07:18.191Z,97152.00
2023-02-15T08:08:19.229Z,97154.00
2023-02-15T08:09:19.243Z,97156.00
2023-02-15T08:10:18.273Z,97154.00
2023-02-15T08:11:19.305Z,97152.00
2023-02-15T08:12:18.321Z,97152.00
2023-02-15T08:13:19.359Z,97152.00
2023-02-15T08:14:18.382Z,97150.00
2023-02-15T08:15:19.465Z,97148.00
2023-02-15T08:16:19.502Z,97146.00
2023-02-15T08:17:18.448Z,97146.00
2023-02-15T08:18:19.477Z,97144.00
2023-02-15T08:19:19.526Z,97142.00
2023-02-15T08:20:18.520Z,97144.00
2023-02-15T08:21:19.539Z,97144.00
2023-02-15T08:22:18.575Z,97142.00
2023-02-15T08:23:19.606Z,97144.00
2023-02-15T08:24:19.596Z,97140.00
2023-02-15T08:25:18.628Z,97138.00
2023-02-15T08:26:18.630Z,97136.00
2023-02-15T08:27:18.654Z,97136.00
2023-02-15T08:28:19.694Z,97136.00
2023-02-15T08:29:19.705Z,97132.00
2023-02-15T08:30:19.834Z,97132.00
2023-02-15T08:31:19.939Z,97128.00
2023-02-15T08:32:18.780Z,97128.00
2023-02-15T08:33:18.760Z,97130.00
2023-02-15T08:34:19.788Z,97128.00
2023-02-15T08:35:19.850Z,97130.00
2023-02-15T08:36:19.827Z,97130.00
2023-02-15T08:37:19.825Z,97126.00
2023-02-15T08:38:19.841Z,97126.00
2023-02-15T08:39:18.869Z,97124.00
2023-02-15T08:40:18.890Z,97124.00
2023-02-15T08:41:19.899Z,97128.00
2023-02-15T08:42:18.910Z,97124.00
2023-02-15T08:43:19.908Z,97124.00
2023-02-15T08:44:18.913Z,97124.00
2023-02-15T08:45:19.939Z,97122.00
2023-02-15T08:46:19.955Z,97126.00
2023-02-15T08:47:19.942Z,97126.00
2023-02-15T08:48:18.937Z,97126.00
2023-02-15T08:49:18.961Z,97126.00
2023-02-15T08:50:19.949Z,97124.00
2023-02-15T08:51:20.055Z,97124.00
2023-02-15T08:52:19.962Z,97124.00
2023-02-15T08:53:19.976Z,97124.00
2023-02-15T08:54:20.042Z,97126.00
2023-02-15T08:55:19.985Z,97122.00
2023-02-15T08:56:19.986Z,97124.00
2023-02-15T08:57:19.980Z,97126.00
2023-02-15T08:58:18.991Z,97124.00
2023-02-15T08:59:19.986Z,97126.00
2023-02-15T09:00:18.988Z,97126.00
2023-02-15T09:01:20.036Z,97126.00
2023-02-15T09:02:20.030Z,97126.00
2023-02-15T09:03:18.985Z,97124.00
2023-02-15T09:04:19.002Z,97120.00
2023-02-15T09:05:19.996Z,97122.00
2023-02-15T09:06:19.997Z,97119.00
2023-02-15T09:07:19.012Z,97119.00
2023-02-15T09:08:19.988Z,97117.00
2023-02-15T09:09:18.986Z,97117.00
2023-02-15T09:10:19.968Z,97117.00
2023-02-15T09:11:19.971Z,97117.00
2023-02-15T09:12:19.972Z,97115.00
2023-02-15T09:13:19.974Z,97115.00
2023-02-15T09:14:19.960Z,97117.00
2023-02-15T09:15:18.959Z,97115.00
2023-02-15T09:16:19.503Z,97115.00
2023-02-15T09:17:19.963Z,97113.00
2023-02-15T09:18:19.999Z,97113.00
2023-02-15T09:19:19.958Z,97113.00
2023-02-15T09:20:19.979Z,97111.00
2023-02-15T09:21:18.976Z,97111.00
2023-02-15T09:22:19.944Z,97111.00
2023-02-15T09:23:26.779Z,97109.00
2023-02-15T09:24:19.947Z,97107.00
2023-02-15T09:25:18.932Z,97105.00
2023-02-15T09:26:18.950Z,97103.00
2023-02-15T09:27:18.934Z,97101.00
2023-02-15T09:28:18.905Z,97101.00
2023-02-15T09:29:19.920Z,97103.00
2023-02-15T09:30:18.937Z,97101.00
2023-02-15T09:31:20.081Z,97101.00
2023-02-15T09:32:18.945Z,97101.00
2023-02-15T09:33:18.870Z,97101.00
2023-02-15T09:34:19.920Z,97101.00
2023-02-15T09:35:18.861Z,97101.00
2023-02-15T09:36:18.867Z,97101.00
2023-02-15T09:37:19.870Z,97103.00
2023-02-15T09:38:19.851Z,97099.00
2023-02-15T09:39:19.878Z,97099.00
2023-02-15T09:40:19.833Z,97099.00
2023-02-15T09:41:18.842Z,97099.00
2023-02-15T09:42:18.826Z,97097.00
2023-02-15T09:43:19.813Z,97099.00
2023-02-15T09:44:18.802Z,97095.00
2023-02-15T09:45:19.799Z,97095.00
2023-02-15T09:46:18.895Z,97093.00
2023-02-15T09:47:18.810Z,97091.00
2023-02-15T09:48:18.780Z,97091.00
2023-02-15T09:49:19.786Z,97089.00
2023-02-15T09:50:19.789Z,97087.00
2023-02-15T09:51:18.766Z,97085.00
2023-02-15T09:52:18.761Z,97087.00
2023-02-15T09:53:19.756Z,97085.00
2023-02-15T09:54:19.757Z,97085.00
2023-02-15T09:55:18.847Z,97083.00
2023-02-15T09:56:20.757Z,97083.00
2023-02-15T09:57:18.920Z,97081.00
2023-02-15T09:58:19.000Z,97081.00
2023-02-15T09:59:20.056Z,97081.00
2023-02-15T10:00:20.142Z,97081.00
2023-02-15T10:01:19.221Z,97081.00
2023-02-15T10:02:19.249Z,97079.00
2023-02-15T10:03:20.299Z,97081.00
2023-02-15T10:04:20.458Z,97075.00
2023-02-15T10:05:19.424Z,97075.00
2023-02-15T10:06:19.498Z,97077.00
2023-02-15T10:07:20.568Z,97073.00
2023-02-15T10:08:20.609Z,97073.00
2023-02-15T10:09:20.670Z,97072.00
2023-02-15T10:10:20.715Z,97072.00
2023-02-15T10:11:19.810Z,97070.00
2023-02-15T10:12:19.842Z,97068.00
2023-02-15T10:13:20.897Z,97068.00
2023-02-15T10:14:20.942Z,97066.00
2023-02-15T10:15:21.031Z,97064.00
2023-02-15T10:16:21.077Z,97064.00
2023-02-15T10:17:21.123Z,97062.00
2023-02-15T10:18:21.180Z,97060.00
2023-02-15T10:19:21.235Z,97062.00
2023-02-15T10:20:21.372Z,97062.00
2023-02-15T10:21:21.423Z,97058.00
2023-02-15T10:22:21.402Z,97060.00
2023-02-15T10:23:20.486Z,97060.00
2023-02-15T10:24:21.526Z,97056.00
2023-02-15T10:25:21.572Z,97054.00
2023-02-15T10:26:21.689Z,97054.00
2023-02-15T10:27:21.681Z,97050.00
2023-02-15T10:28:21.746Z,97050.00
2023-02-15T10:29:20.776Z,97046.00
2023-02-15T10:30:21.977Z,97044.00
2023-02-15T10:31:22.088Z,97044.00
2023-02-15T10:32:21.008Z,97044.00
2023-02-15T10:33:21.986Z,97046.00
2023-02-15T10:34:22.037Z,97044.00
2023-02-15T10:35:21.090Z,97040.00
2023-02-15T10:36:21.144Z,97040.00
2023-02-15T10:37:21.210Z,97038.00
2023-02-15T10:38:22.262Z,97038.00
2023-02-15T10:39:22.311Z,97036.00
2023-02-15T10:40:22.351Z,97036.00
2023-02-15T10:41:22.409Z,97032.00
2023-02-15T10:42:21.516Z,97030.00
2023-02-15T10:43:21.625Z,97030.00
2023-02-15T10:44:21.579Z,97028.00
2023-02-15T10:45:22.634Z,97026.00
2023-02-15T10:46:21.800Z,97025.00
2023-02-15T10:47:21.731Z,97023.00
2023-02-15T10:48:22.827Z,97023.00
2023-02-15T10:49:22.833Z,97017.00
2023-02-15T10:50:21.887Z,97015.00
2023-02-15T10:51:22.922Z,97015.00
2023-02-15T10:52:24.360Z,97015.00
2023-02-15T10:53:22.090Z,97009.00
2023-02-15T10:54:23.127Z,97009.00
2023-02-15T10:55:22.169Z,97007.00
2023-02-15T10:56:23.213Z,97005.00
2023-02-15T10:57:23.268Z,97001.00
2023-02-15T10:58:22.372Z,96999.00
2023-02-15T10:59:22.371Z,96997.00
2023-02-15T11:00:23.405Z,96993.00
2023-02-15T11:01:22.545Z,96993.00
2023-02-15T11:02:22.478Z,96989.00
2023-02-15T11:03:23.518Z,96991.00
2023-02-15T11:04:22.572Z,96987.00
2023-02-15T11:05:23.686Z,96987.00
2023-02-15T11:06:22.639Z,96979.00
2023-02-15T11:07:23.673Z,96978.00
2023-02-15T11:08:23.729Z,96976.00
2023-02-15T11:09:23.760Z,96974.00
2023-02-15T11:10:23.795Z,96974.00
2023-02-15T11:11:23.837Z,96968.00
2023-02-15T11:12:23.887Z,96968.00
2023-02-15T11:13:22.915Z,96966.00
2023-02-15T11:14:23.987Z,96960.00
2023-02-15T11:15:22.995Z,96964.00
2023-02-15T11:16:23.080Z,96962.00
2023-02-15T11:17:23.056Z,96960.00
2023-02-15T11:18:24.095Z,96958.00
2023-02-15T11:19:24.149Z,96956.00
2023-02-15T11:20:24.175Z,96956.00
2023-02-15T11:21:23.225Z,96956.00
2023-02-15T11:22:24.243Z,96956.00
2023-02-15T11:23:24.271Z,96946.00
2023-02-15T11:24:23.327Z,96946.00
2023-02-15T11:25:24.346Z,96946.00
2023-02-15T11:26:24.394Z,96942.00
2023-02-15T11:27:24.505Z,96942.00
2023-02-15T11:28:24.443Z,96942.00
2023-02-15T11:29:24.543Z,96940.00
2023-02-15T11:30:23.719Z,96938.00
2023-02-15T11:31:24.674Z,96934.00
2023-02-15T11:32:24.628Z,96934.00
2023-02-15T11:33:23.648Z,96932.00
2023-02-15T11:34:24.676Z,96932.00
2023-02-15T11:35:24.702Z,96928.00
2023-02-15T11:36:24.754Z,96924.00
2023-02-15T11:37:23.776Z,96922.00
2023-02-15T11:38:24.834Z,96924.00
2023-02-15T11:39:24.880Z,96920.00
2023-02-15T11:40:24.053Z,96918.00
2023-02-15T11:41:24.166Z,96917.00
2023-02-15T11:42:25.113Z,96915.00
2023-02-15T11:43:24.021Z,96911.00
2023-02-15T11:44:24.277Z,96909.00